Time;durP1;ratioP1;P1;durP2;ratioP2;P2;SDS_P1;SDS_P2;PMS_P1;PMS_P2;Temp;Humidity;BMP_temperature;BMP_pressure;BME280_temperature;BME280_humidity;BME280_pressure;Samples;Min_cycle;Max_cycle;Signal;HPM_P1;HPM_P2
2024/01/23 00:00:44;;;;;;;10.93;3.07;;;6.20;99.90;;;;;;502946;236;28757;-68
2024/01/23 00:02:45;;;;;;;9.65;2.65;;;6.20;99.90;;;;;;502786;236;28776;-67
2024/01/23 00:04:47;;;;;;;15.23;3.05;;;6.20;99.90;;;;;;502797;236;27814;-67
2024/01/23 00:06:48;;;;;;;12.60;2.35;;;6.20;99.90;;;;;;502911;236;27610;-67
2024/01/23 00:08:49;;;;;;;13.85;3.20;;;6.20;99.90;;;;;;502955;236;27532;-65
2024/01/23 00:10:50;;;;;;;15.25;2.62;;;6.20;99.90;;;;;;502963;236;27600;-67
2024/01/23 00:12:52;;;;;;;13.05;3.28;;;6.20;99.90;;;;;;502999;236;27399;-68
2024/01/23 00:14:54;;;;;;;15.70;2.87;;;6.20;99.90;;;;;;502923;236;27831;-65
2024/01/23 00:16:54;;;;;;;11.27;2.97;;;6.10;99.90;;;;;;502948;236;29049;-65
2024/01/23 00:18:56;;;;;;;10.38;3.28;;;6.10;99.90;;;;;;502996;236;27454;-65
2024/01/23 00:20:57;;;;;;;13.60;3.80;;;6.10;99.90;;;;;;502987;236;27480;-65
2024/01/23 00:22:58;;;;;;;16.60;4.35;;;6.00;99.90;;;;;;502702;236;27927;-66
2024/01/23 00:25:02;;;;;;;9.25;2.83;;;6.10;99.90;;;;;;502893;236;27358;-66
2024/01/23 00:27:04;;;;;;;10.02;3.05;;;6.10;99.90;;;;;;502960;236;27915;-65
2024/01/23 00:29:07;;;;;;;12.10;3.10;;;6.10;99.90;;;;;;502993;236;27920;-65
2024/01/23 00:31:06;;;;;;;12.15;3.10;;;6.10;99.90;;;;;;502911;236;27514;-67
2024/01/23 00:33:07;;;;;;;8.13;2.85;;;6.00;99.90;;;;;;502955;236;27409;-65
2024/01/23 00:35:09;;;;;;;11.88;3.35;;;6.00;99.90;;;;;;502967;236;27473;-65
2024/01/23 00:37:10;;;;;;;11.60;2.62;;;6.10;99.90;;;;;;502978;236;27446;-65
2024/01/23 00:39:11;;;;;;;16.15;3.20;;;6.10;99.90;;;;;;503022;236;27875;-68
2024/01/23 00:41:12;;;;;;;12.98;2.85;;;6.10;99.90;;;;;;502966;236;27525;-66
2024/01/23 00:43:14;;;;;;;10.93;2.50;;;6.00;99.90;;;;;;502915;236;27443;-65
2024/01/23 00:45:15;;;;;;;10.73;2.67;;;6.10;99.90;;;;;;502917;236;27549;-65
2024/01/23 00:47:16;;;;;;;16.33;2.93;;;6.00;99.90;;;;;;502850;236;27515;-69
2024/01/23 00:49:18;;;;;;;13.27;2.70;;;6.00;99.90;;;;;;502956;236;28784;-65
2024/01/23 00:51:19;;;;;;;15.18;3.00;;;6.00;99.90;;;;;;502826;236;27993;-67
2024/01/23 00:53:20;;;;;;;10.75;3.12;;;6.00;99.90;;;;;;502897;236;27471;-65
2024/01/23 00:55:21;;;;;;;13.55;2.87;;;6.00;99.90;;;;;;502949;236;27486;-65
2024/01/23 00:57:23;;;;;;;12.43;3.28;;;6.00;99.90;;;;;;502939;236;27510;-67
2024/01/23 00:59:24;;;;;;;15.10;3.53;;;6.00;99.90;;;;;;502975;236;27441;-67
2024/01/23 01:01:25;;;;;;;12.45;2.85;;;6.00;99.90;;;;;;502968;236;27486;-65
2024/01/23 01:03:26;;;;;;;11.88;2.90;;;6.00;99.90;;;;;;502926;236;28077;-67
2024/01/23 01:05:28;;;;;;;8.65;2.78;;;6.00;99.90;;;;;;502947;236;27366;-66
2024/01/23 01:07:29;;;;;;;14.90;3.55;;;6.00;99.90;;;;;;502954;236;27487;-66
2024/01/23 01:09:30;;;;;;;20.17;3.20;;;6.00;99.90;;;;;;502970;236;27451;-66
2024/01/23 01:11:31;;;;;;;14.63;3.08;;;6.00;99.90;;;;;;502860;236;28880;-65
2024/01/23 01:13:33;;;;;;;7.12;2.30;;;6.00;99.90;;;;;;502981;236;27382;-67
2024/01/23 01:15:34;;;;;;;13.00;3.22;;;5.90;99.90;;;;;;502941;236;28069;-65
2024/01/23 01:17:35;;;;;;;8.23;2.92;;;6.00;99.90;;;;;;502965;236;27997;-65
2024/01/23 01:19:36;;;;;;;13.20;2.22;;;5.90;99.90;;;;;;502911;236;27454;-67
2024/01/23 01:21:38;;;;;;;11.48;2.60;;;5.90;99.90;;;;;;502993;236;27443;-65
2024/01/23 01:23:39;;;;;;;9.18;2.40;;;6.00;99.90;;;;;;502955;236;27561;-65
2024/01/23 01:25:43;;;;;;;8.85;2.80;;;5.90;99.90;;;;;;502930;236;27583;-66
2024/01/23 01:27:41;;;;;;;9.15;2.80;;;6.00;99.90;;;;;;502842;236;28038;-67
2024/01/23 01:29:43;;;;;;;11.48;2.83;;;5.90;99.90;;;;;;503005;234;28064;-66
2024/01/23 01:31:44;;;;;;;15.52;3.00;;;5.90;99.90;;;;;;502980;236;27371;-65
2024/01/23 01:33:45;;;;;;;9.88;2.95;;;5.90;99.90;;;;;;502938;236;27533;-65
2024/01/23 01:35:47;;;;;;;13.07;3.60;;;6.00;99.90;;;;;;502929;236;27455;-65
2024/01/23 01:37:48;;;;;;;10.32;2.45;;;5.90;99.90;;;;;;502965;236;27443;-66
2024/01/23 01:39:49;;;;;;;9.40;2.50;;;5.90;99.90;;;;;;502998;236;28059;-67
2024/01/23 01:41:50;;;;;;;16.10;2.78;;;5.90;99.90;;;;;;502982;236;27911;-66
2024/01/23 01:43:52;;;;;;;11.10;2.60;;;5.80;99.90;;;;;;502966;236;27395;-67
2024/01/23 01:45:53;;;;;;;16.02;2.75;;;5.90;99.90;;;;;;502892;236;27499;-66
2024/01/23 01:47:54;;;;;;;10.13;3.10;;;5.90;99.90;;;;;;502925;236;27454;-66
2024/01/23 01:49:55;;;;;;;17.98;3.30;;;5.90;99.90;;;;;;502987;236;27461;-68
2024/01/23 01:51:57;;;;;;;18.73;3.97;;;5.90;99.90;;;;;;502903;236;27553;-67
2024/01/23 01:53:58;;;;;;;20.58;3.25;;;5.90;99.90;;;;;;502914;236;27530;-67
2024/01/23 01:55:59;;;;;;;11.85;2.70;;;5.90;99.90;;;;;;502954;236;27851;-66
2024/01/23 01:58:00;;;;;;;14.10;3.60;;;5.90;99.90;;;;;;502803;236;27803;-66
2024/01/23 02:00:02;;;;;;;17.40;3.58;;;5.90;99.90;;;;;;502967;236;27492;-66
2024/01/23 02:02:05;;;;;;;19.27;3.92;;;6.00;99.90;;;;;;502931;236;27479;-67
2024/01/23 02:04:04;;;;;;;9.50;2.78;;;6.00;99.90;;;;;;502917;236;27524;-66
2024/01/23 02:06:05;;;;;;;14.60;3.03;;;5.90;99.90;;;;;;502970;236;27517;-67
2024/01/23 02:08:07;;;;;;;16.35;3.97;;;5.90;99.90;;;;;;502979;236;27914;-65
2024/01/23 02:10:08;;;;;;;16.62;4.32;;;5.90;99.90;;;;;;502905;236;28097;-67
2024/01/23 02:12:10;;;;;;;15.10;3.20;;;5.90;99.90;;;;;;502969;236;27517;-65
2024/01/23 02:14:11;;;;;;;15.18;3.70;;;5.90;99.90;;;;;;502976;236;27529;-65
2024/01/23 02:16:12;;;;;;;15.77;3.42;;;5.90;99.90;;;;;;502935;236;27505;-66
2024/01/23 02:18:13;;;;;;;29.35;4.97;;;5.90;99.90;;;;;;502940;236;27497;-66
2024/01/23 02:20:14;;;;;;;22.62;3.62;;;5.90;99.90;;;;;;502973;236;27922;-67
2024/01/23 02:22:16;;;;;;;13.20;3.47;;;5.90;99.90;;;;;;503001;236;27479;-68
2024/01/23 02:24:17;;;;;;;12.35;3.25;;;5.80;99.90;;;;;;502808;236;27443;-67
2024/01/23 02:26:18;;;;;;;17.98;4.03;;;5.80;99.90;;;;;;502912;236;27486;-65
2024/01/23 02:28:19;;;;;;;24.50;4.43;;;5.80;99.90;;;;;;502811;236;27552;-67
2024/01/23 02:30:21;;;;;;;18.08;3.35;;;5.80;99.90;;;;;;502977;236;27391;-67
2024/01/23 02:32:22;;;;;;;13.10;3.87;;;5.80;99.90;;;;;;502953;236;27411;-65
2024/01/23 02:34:24;;;;;;;20.35;4.15;;;5.80;99.90;;;;;;502970;236;27434;-65
2024/01/23 02:36:25;;;;;;;15.82;3.62;;;5.80;99.90;;;;;;502897;236;27561;-65
2024/01/23 02:38:26;;;;;;;12.20;3.70;;;5.80;99.90;;;;;;502992;236;27870;-68
2024/01/23 02:40:27;;;;;;;23.45;3.95;;;5.70;99.90;;;;;;502983;236;27925;-67
2024/01/23 02:42:28;;;;;;;21.98;3.70;;;5.80;99.90;;;;;;502960;236;27537;-68
2024/01/23 02:44:30;;;;;;;13.40;3.25;;;5.80;99.90;;;;;;502947;236;27341;-66
2024/01/23 02:46:31;;;;;;;16.30;3.45;;;5.70;99.90;;;;;;502797;236;27426;-66
2024/01/23 02:48:32;;;;;;;18.17;3.40;;;5.60;99.90;;;;;;502945;236;27394;-68
2024/01/23 02:50:33;;;;;;;15.15;3.22;;;5.60;99.90;;;;;;502924;236;27970;-67
2024/01/23 02:52:35;;;;;;;24.75;4.35;;;5.60;99.90;;;;;;502913;236;27557;-67
2024/01/23 02:54:36;;;;;;;19.60;3.70;;;5.60;99.90;;;;;;502991;236;27386;-68
2024/01/23 02:56:37;;;;;;;20.52;4.35;;;5.60;99.90;;;;;;502962;236;27458;-67
2024/01/23 02:58:38;;;;;;;18.70;3.85;;;5.70;99.90;;;;;;502992;236;27494;-64
2024/01/23 03:00:42;;;;;;;13.60;3.30;;;5.70;99.90;;;;;;502981;234;28010;-66
2024/01/23 03:02:41;;;;;;;22.25;3.70;;;5.70;99.90;;;;;;502953;236;27477;-67
2024/01/23 03:04:42;;;;;;;21.27;3.92;;;5.70;99.90;;;;;;502939;236;28032;-68
2024/01/23 03:06:44;;;;;;;20.80;3.87;;;5.70;99.90;;;;;;502835;236;27907;-65
2024/01/23 03:08:45;;;;;;;23.60;4.75;;;5.80;99.90;;;;;;502960;236;27490;-65
2024/01/23 03:10:46;;;;;;;16.50;3.55;;;5.80;99.90;;;;;;502951;236;27369;-65
2024/01/23 03:12:47;;;;;;;22.13;3.55;;;5.80;99.90;;;;;;502721;236;27471;-65
2024/01/23 03:14:49;;;;;;;16.87;3.20;;;5.90;99.90;;;;;;502923;236;27497;-68
2024/01/23 03:16:50;;;;;;;20.48;4.47;;;5.80;99.90;;;;;;502857;236;27915;-66
2024/01/23 03:18:51;;;;;;;19.17;4.00;;;5.80;99.90;;;;;;502983;236;27560;-65
2024/01/23 03:20:52;;;;;;;23.20;3.75;;;5.80;99.90;;;;;;503015;236;27487;-68
2024/01/23 03:22:54;;;;;;;26.98;4.65;;;5.90;99.90;;;;;;502969;236;27370;-67
2024/01/23 03:24:55;;;;;;;22.40;4.00;;;5.90;99.90;;;;;;502844;236;27393;-66
2024/01/23 03:26:56;;;;;;;16.15;4.15;;;5.90;99.90;;;;;;502731;236;28821;-66
2024/01/23 03:28:57;;;;;;;20.35;4.30;;;5.90;99.90;;;;;;502856;236;27902;-65
2024/01/23 03:30:59;;;;;;;16.40;3.22;;;5.90;99.90;;;;;;502979;236;27382;-65
2024/01/23 03:33:00;;;;;;;18.10;3.85;;;5.90;99.90;;;;;;502933;236;27454;-65
2024/01/23 03:35:03;;;;;;;24.90;4.40;;;5.90;99.90;;;;;;502893;236;27514;-65
2024/01/23 03:37:02;;;;;;;21.52;4.03;;;5.90;99.90;;;;;;502937;234;27894;-66
2024/01/23 03:39:04;;;;;;;19.98;4.18;;;5.90;99.90;;;;;;503010;236;27982;-65
2024/01/23 03:41:05;;;;;;;19.58;4.12;;;5.90;99.90;;;;;;502971;236;27608;-67
2024/01/23 03:43:06;;;;;;;20.05;4.65;;;5.90;99.90;;;;;;502987;236;27458;-65
2024/01/23 03:45:08;;;;;;;15.68;3.75;;;5.90;99.90;;;;;;502819;236;27468;-66
2024/01/23 03:47:09;;;;;;;18.67;4.30;;;5.80;99.90;;;;;;503018;236;27534;-65
2024/01/23 03:49:10;;;;;;;19.25;4.03;;;5.80;99.90;;;;;;502996;236;27533;-67
2024/01/23 03:51:11;;;;;;;18.62;4.70;;;5.90;99.90;;;;;;503025;236;27955;-66
2024/01/23 03:53:13;;;;;;;13.75;3.22;;;5.90;99.90;;;;;;502972;236;27475;-66
2024/01/23 03:55:14;;;;;;;24.40;4.20;;;5.90;99.90;;;;;;502984;236;27580;-66
2024/01/23 03:57:15;;;;;;;25.05;3.85;;;5.90;99.90;;;;;;502990;236;27597;-67
2024/01/23 03:59:16;;;;;;;14.35;2.83;;;5.80;99.90;;;;;;502969;236;27605;-67
2024/01/23 04:01:18;;;;;;;27.58;4.62;;;5.90;99.90;;;;;;502931;236;28575;-66
2024/01/23 04:03:19;;;;;;;14.15;4.37;;;5.80;99.90;;;;;;503005;236;30015;-68
2024/01/23 04:05:20;;;;;;;21.80;4.03;;;5.90;99.90;;;;;;502980;236;27458;-67
2024/01/23 04:07:21;;;;;;;17.17;3.92;;;5.80;99.90;;;;;;502967;236;27475;-66
2024/01/23 04:09:23;;;;;;;13.23;4.20;;;5.80;99.90;;;;;;502985;236;27482;-65
2024/01/23 04:11:24;;;;;;;18.40;3.30;;;5.80;99.90;;;;;;503022;236;27872;-67
2024/01/23 04:13:25;;;;;;;17.73;3.50;;;5.80;99.90;;;;;;502998;236;28046;-65
2024/01/23 04:15:27;;;;;;;17.60;3.55;;;5.90;99.90;;;;;;502929;236;27464;-67
2024/01/23 04:17:29;;;;;;;15.90;3.03;;;5.80;99.90;;;;;;502975;236;27954;-65
2024/01/23 04:19:29;;;;;;;18.15;3.83;;;5.70;99.90;;;;;;502964;236;27502;-68
2024/01/23 04:21:30;;;;;;;14.18;3.78;;;5.70;99.90;;;;;;502932;236;27447;-67
2024/01/23 04:23:32;;;;;;;19.15;3.35;;;5.70;99.90;;;;;;503011;233;27606;-67
2024/01/23 04:25:33;;;;;;;17.83;4.22;;;5.70;99.90;;;;;;502917;236;27485;-67
2024/01/23 04:27:34;;;;;;;8.95;3.12;;;5.70;99.90;;;;;;503033;236;27926;-67
2024/01/23 04:29:35;;;;;;;16.65;3.90;;;5.70;99.90;;;;;;502995;236;28050;-67
2024/01/23 04:31:37;;;;;;;12.00;3.12;;;5.70;99.90;;;;;;502994;236;27518;-67
2024/01/23 04:33:38;;;;;;;14.60;3.08;;;5.80;99.90;;;;;;502955;236;27477;-66
2024/01/23 04:35:39;;;;;;;27.20;4.20;;;5.90;99.90;;;;;;502607;236;27534;-68
2024/01/23 04:37:41;;;;;;;23.20;3.80;;;5.90;99.90;;;;;;502989;236;27470;-67
2024/01/23 04:39:42;;;;;;;17.48;4.20;;;5.90;99.90;;;;;;502981;236;28072;-68
2024/01/23 04:41:43;;;;;;;14.95;4.28;;;5.90;99.90;;;;;;502938;236;27953;-67
2024/01/23 04:43:44;;;;;;;24.27;4.10;;;5.80;99.90;;;;;;502950;236;27455;-67
2024/01/23 04:45:46;;;;;;;17.50;3.17;;;5.70;99.90;;;;;;502972;236;27589;-68
2024/01/23 04:47:47;;;;;;;16.08;2.85;;;5.70;99.90;;;;;;502980;236;27555;-67
2024/01/23 04:49:48;;;;;;;14.95;3.58;;;5.60;99.90;;;;;;502980;236;27497;-67
2024/01/23 04:51:49;;;;;;;14.98;3.50;;;5.60;99.90;;;;;;502951;236;28799;-65
2024/01/23 04:53:53;;;;;;;9.52;3.40;;;5.60;99.90;;;;;;502981;236;27814;-64
2024/01/23 04:55:55;;;;;;;20.00;4.05;;;5.60;99.90;;;;;;502857;236;27474;-65
2024/01/23 04:57:56;;;;;;;23.12;3.65;;;5.50;99.90;;;;;;502967;236;27896;-65
2024/01/23 04:59:57;;;;;;;14.60;2.80;;;5.50;99.90;;;;;;502956;236;27995;-65
2024/01/23 05:01:59;;;;;;;15.98;3.25;;;5.50;99.90;;;;;;502922;236;27557;-65
2024/01/23 05:04:00;;;;;;;14.68;4.15;;;5.40;99.90;;;;;;502968;236;27525;-65
2024/01/23 05:06:01;;;;;;;12.98;3.05;;;5.30;99.90;;;;;;502910;236;27557;-65
2024/01/23 05:08:02;;;;;;;18.42;3.87;;;5.30;99.90;;;;;;502915;236;27596;-65
2024/01/23 05:10:04;;;;;;;11.93;3.03;;;5.20;99.90;;;;;;502919;236;27481;-65
2024/01/23 05:12:05;;;;;;;10.55;2.97;;;5.30;99.90;;;;;;502942;236;27901;-65
2024/01/23 05:14:06;;;;;;;12.73;3.70;;;5.30;99.90;;;;;;502917;236;27375;-65
2024/01/23 05:16:07;;;;;;;11.52;3.45;;;5.30;99.90;;;;;;502777;236;27465;-65
2024/01/23 05:18:09;;;;;;;17.00;2.92;;;5.30;99.90;;;;;;502883;236;27498;-65
2024/01/23 05:20:10;;;;;;;14.43;3.25;;;5.20;99.90;;;;;;502974;236;27499;-66
2024/01/23 05:22:11;;;;;;;14.07;2.87;;;5.10;99.90;;;;;;503007;236;27355;-65
2024/01/23 05:24:12;;;;;;;15.93;3.12;;;5.10;99.90;;;;;;502978;236;28026;-64
2024/01/23 05:26:14;;;;;;;10.23;3.17;;;5.20;99.90;;;;;;502890;236;27954;-64
2024/01/23 05:28:15;;;;;;;17.73;3.92;;;5.20;99.90;;;;;;502953;236;27477;-65
2024/01/23 05:30:16;;;;;;;12.50;3.22;;;5.20;99.90;;;;;;503013;236;27386;-66
2024/01/23 05:32:17;;;;;;;14.75;3.58;;;5.20;99.90;;;;;;502966;236;27367;-65
2024/01/23 05:34:19;;;;;;;24.37;4.43;;;5.10;99.90;;;;;;502955;236;27468;-65
2024/01/23 05:36:20;;;;;;;11.10;3.12;;;5.10;99.90;;;;;;502890;236;28965;-64
2024/01/23 05:38:21;;;;;;;16.65;3.17;;;5.10;99.90;;;;;;502988;236;27794;-65
2024/01/23 05:40:23;;;;;;;15.05;2.47;;;5.00;99.90;;;;;;502982;236;27382;-65
2024/01/23 05:42:24;;;;;;;9.57;3.05;;;4.90;99.90;;;;;;502901;236;27394;-66
2024/01/23 05:44:25;;;;;;;10.23;2.55;;;4.80;99.90;;;;;;502811;236;27473;-64
2024/01/23 05:46:27;;;;;;;22.37;3.65;;;4.90;99.90;;;;;;502971;236;27490;-66
2024/01/23 05:48:27;;;;;;;14.93;3.45;;;4.80;99.90;;;;;;502652;236;27442;-65
2024/01/23 05:50:29;;;;;;;15.23;3.90;;;4.90;99.90;;;;;;502967;236;27966;-65
2024/01/23 05:52:30;;;;;;;12.37;3.05;;;4.90;99.90;;;;;;502930;236;28062;-65
2024/01/23 05:54:31;;;;;;;15.77;3.67;;;4.90;99.90;;;;;;502982;236;27367;-64
2024/01/23 05:56:33;;;;;;;18.05;3.70;;;4.80;99.90;;;;;;502806;236;27490;-66
2024/01/23 05:58:34;;;;;;;13.32;2.55;;;4.80;99.90;;;;;;502945;236;27402;-65
2024/01/23 06:00:35;;;;;;;8.57;3.05;;;4.80;99.90;;;;;;502934;236;27533;-65
2024/01/23 06:02:36;;;;;;;12.95;3.25;;;4.70;99.90;;;;;;502903;236;27454;-65
2024/01/23 06:04:38;;;;;;;10.82;2.92;;;4.70;99.90;;;;;;502668;236;27995;-65
2024/01/23 06:06:39;;;;;;;10.05;2.90;;;4.70;99.90;;;;;;502939;236;27473;-66
2024/01/23 06:08:40;;;;;;;14.48;3.25;;;4.70;99.90;;;;;;502832;236;27447;-64
2024/01/23 06:10:41;;;;;;;17.87;4.30;;;4.70;99.90;;;;;;502912;236;27505;-64
2024/01/23 06:12:43;;;;;;;12.70;2.85;;;4.60;99.90;;;;;;502977;236;27426;-66
2024/01/23 06:14:44;;;;;;;13.32;2.95;;;4.60;99.90;;;;;;502946;236;27410;-67
2024/01/23 06:16:45;;;;;;;10.13;3.15;;;4.60;99.90;;;;;;502950;236;27508;-68
2024/01/23 06:18:46;;;;;;;7.65;2.30;;;4.60;99.90;;;;;;502975;236;27925;-65
2024/01/23 06:20:48;;;;;;;16.95;3.10;;;4.50;99.90;;;;;;502978;236;27925;-67
2024/01/23 06:22:49;;;;;;;12.27;2.83;;;4.50;99.90;;;;;;502974;236;27386;-68
2024/01/23 06:24:50;;;;;;;15.55;3.45;;;4.50;99.90;;;;;;502935;236;27450;-67
2024/01/23 06:26:51;;;;;;;21.80;3.12;;;4.50;99.90;;;;;;502881;236;27463;-67
2024/01/23 06:28:53;;;;;;;15.40;2.70;;;4.50;99.90;;;;;;502931;234;27616;-67
2024/01/23 06:30:54;;;;;;;10.25;3.12;;;4.50;99.90;;;;;;502987;236;27600;-67
2024/01/23 06:32:55;;;;;;;14.73;3.50;;;4.50;99.90;;;;;;502944;236;28466;-67
2024/01/23 06:34:57;;;;;;;14.65;3.20;;;4.60;99.90;;;;;;502911;236;27900;-67
2024/01/23 06:36:58;;;;;;;16.52;3.37;;;4.50;99.90;;;;;;502877;236;27518;-67
2024/01/23 06:39:00;;;;;;;9.98;3.17;;;4.50;99.90;;;;;;502822;236;27382;-67
2024/01/23 06:41:02;;;;;;;9.13;2.58;;;4.60;99.90;;;;;;502953;236;27549;-67
2024/01/23 06:43:03;;;;;;;11.68;3.17;;;4.60;99.90;;;;;;502924;236;27876;-67
2024/01/23 06:45:04;;;;;;;18.45;3.50;;;4.70;99.90;;;;;;502876;236;27873;-66
2024/01/23 06:47:05;;;;;;;13.57;4.18;;;4.70;99.90;;;;;;502713;234;27997;-65
2024/01/23 06:49:07;;;;;;;19.70;2.95;;;4.80;99.90;;;;;;502679;236;27434;-65
2024/01/23 06:51:08;;;;;;;11.05;3.10;;;4.80;99.90;;;;;;502583;236;27577;-66
2024/01/23 06:53:11;;;;;;;16.65;3.17;;;4.70;99.90;;;;;;502756;236;27383;-67
2024/01/23 06:55:12;;;;;;;10.13;3.20;;;4.70;99.90;;;;;;502839;236;27505;-67
2024/01/23 06:57:13;;;;;;;20.00;3.70;;;4.60;99.90;;;;;;502930;236;27802;-68
2024/01/23 06:59:15;;;;;;;13.32;2.70;;;4.80;99.90;;;;;;502979;236;27970;-67
2024/01/23 07:01:16;;;;;;;13.35;3.33;;;4.90;99.90;;;;;;502935;236;27583;-65
2024/01/23 07:03:17;;;;;;;15.60;4.45;;;5.00;99.90;;;;;;502842;236;27466;-65
2024/01/23 07:05:18;;;;;;;11.35;2.95;;;5.00;99.90;;;;;;502883;236;27401;-65
2024/01/23 07:07:19;;;;;;;15.55;3.40;;;5.00;99.90;;;;;;502841;236;27387;-66
2024/01/23 07:09:21;;;;;;;10.18;2.90;;;5.00;99.90;;;;;;502904;236;27504;-67
2024/01/23 07:11:22;;;;;;;13.90;3.33;;;5.00;99.90;;;;;;502925;236;27980;-67
2024/01/23 07:13:23;;;;;;;10.48;2.72;;;5.10;99.90;;;;;;502906;236;27900;-66
2024/01/23 07:15:24;;;;;;;16.73;3.30;;;5.10;99.90;;;;;;502874;236;27590;-67
2024/01/23 07:17:26;;;;;;;12.15;3.03;;;5.10;99.90;;;;;;502970;236;27500;-68
2024/01/23 07:19:27;;;;;;;10.80;3.40;;;5.10;99.90;;;;;;502919;236;27354;-67
2024/01/23 07:21:28;;;;;;;15.82;3.60;;;5.10;99.90;;;;;;502887;236;27391;-67
2024/01/23 07:23:29;;;;;;;19.37;4.10;;;5.00;99.90;;;;;;502909;234;28441;-65
2024/01/23 07:25:31;;;;;;;14.90;2.97;;;5.00;99.90;;;;;;502914;236;27560;-65
2024/01/23 07:27:32;;;;;;;14.82;3.75;;;5.10;99.90;;;;;;502966;236;27589;-66
2024/01/23 07:29:34;;;;;;;8.05;2.97;;;5.10;99.90;;;;;;502941;236;27526;-64
2024/01/23 07:31:35;;;;;;;8.55;3.78;;;5.00;99.90;;;;;;502897;236;27493;-65
2024/01/23 07:33:36;;;;;;;15.38;3.25;;;4.90;99.90;;;;;;502976;236;27938;-66
2024/01/23 07:35:37;;;;;;;20.00;3.53;;;4.90;99.90;;;;;;502861;236;27827;-65
2024/01/23 07:37:38;;;;;;;19.40;3.62;;;4.90;99.90;;;;;;502944;236;27592;-65
2024/01/23 07:39:40;;;;;;;8.77;2.72;;;5.00;99.90;;;;;;502894;236;27471;-65
2024/01/23 07:41:41;;;;;;;11.52;3.75;;;5.00;99.90;;;;;;502899;236;27338;-65
2024/01/23 07:43:42;;;;;;;19.65;3.55;;;5.10;99.90;;;;;;503006;236;27553;-65
2024/01/23 07:45:43;;;;;;;23.42;4.00;;;5.10;99.90;;;;;;502908;236;27506;-65
2024/01/23 07:47:45;;;;;;;13.85;3.15;;;5.20;99.90;;;;;;502942;236;27602;-65
2024/01/23 07:49:46;;;;;;;15.45;3.40;;;5.20;99.90;;;;;;502993;234;28064;-66
2024/01/23 07:51:47;;;;;;;19.85;3.55;;;5.30;99.90;;;;;;502882;236;27410;-67
2024/01/23 07:53:50;;;;;;;11.02;3.33;;;5.30;99.90;;;;;;502947;236;27499;-67
2024/01/23 07:55:50;;;;;;;18.00;3.85;;;5.20;99.90;;;;;;502795;236;27530;-66
2024/01/23 07:57:51;;;;;;;7.53;2.65;;;5.20;99.90;;;;;;502948;236;27800;-67
2024/01/23 07:59:52;;;;;;;13.50;3.35;;;5.10;99.90;;;;;;502979;236;27984;-67
2024/01/23 08:01:53;;;;;;;13.30;3.37;;;5.10;99.90;;;;;;502934;236;27421;-66
2024/01/23 08:03:57;;;;;;;9.80;3.17;;;5.00;99.90;;;;;;502979;236;27517;-65
2024/01/23 08:05:57;;;;;;;14.93;3.15;;;5.00;99.90;;;;;;502805;236;27473;-66
2024/01/23 08:07:57;;;;;;;16.65;3.10;;;5.00;99.90;;;;;;502950;236;27346;-66
2024/01/23 08:09:59;;;;;;;8.70;2.67;;;5.00;99.90;;;;;;502931;236;27379;-64
2024/01/23 08:12:00;;;;;;;13.88;2.95;;;5.00;99.90;;;;;;502917;236;27798;-65
2024/01/23 08:14:01;;;;;;;16.15;3.17;;;4.90;99.90;;;;;;502951;236;27980;-65
2024/01/23 08:16:02;;;;;;;8.75;3.12;;;4.90;99.90;;;;;;502942;236;27390;-68
2024/01/23 08:18:04;;;;;;;9.30;2.80;;;4.90;99.90;;;;;;502961;236;27354;-64
2024/01/23 08:20:08;;;;;;;15.23;2.83;;;4.90;99.90;;;;;;502951;236;27466;-65
2024/01/23 08:22:06;;;;;;;10.20;2.17;;;4.90;99.90;;;;;;502800;236;27505;-67
2024/01/23 08:24:07;;;;;;;9.57;2.92;;;5.00;99.90;;;;;;502929;236;27458;-65
2024/01/23 08:26:09;;;;;;;8.05;2.62;;;5.20;99.90;;;;;;502919;236;27519;-65
2024/01/23 08:28:10;;;;;;;12.95;3.15;;;5.20;99.90;;;;;;502947;236;27911;-67
2024/01/23 08:30:11;;;;;;;9.73;2.47;;;5.20;99.90;;;;;;502786;236;27962;-67
2024/01/23 08:32:12;;;;;;;10.35;3.20;;;5.20;99.90;;;;;;502899;236;27521;-67
2024/01/23 08:34:14;;;;;;;13.60;3.20;;;5.20;99.90;;;;;;503000;236;27447;-67
2024/01/23 08:36:15;;;;;;;11.98;2.92;;;5.20;99.90;;;;;;502940;236;27422;-65
2024/01/23 08:38:16;;;;;;;23.25;3.55;;;5.30;99.90;;;;;;502974;236;27494;-65
2024/01/23 08:40:17;;;;;;;10.02;3.55;;;5.40;99.90;;;;;;502973;236;27521;-66
2024/01/23 08:42:19;;;;;;;20.37;4.07;;;5.50;99.90;;;;;;503040;236;27958;-68
2024/01/23 08:44:21;;;;;;;9.48;2.78;;;5.70;99.90;;;;;;503001;236;27984;-67
2024/01/23 08:46:21;;;;;;;15.00;2.97;;;5.70;99.90;;;;;;502928;236;27510;-66
2024/01/23 08:48:24;;;;;;;21.58;3.78;;;5.80;99.90;;;;;;502938;236;27447;-67
2024/01/23 08:50:24;;;;;;;22.85;3.85;;;5.80;99.90;;;;;;502868;236;27490;-67
2024/01/23 08:52:25;;;;;;;14.23;4.50;;;5.90;99.90;;;;;;502945;236;27604;-65
2024/01/23 08:54:26;;;;;;;16.92;3.80;;;5.80;99.90;;;;;;502983;236;28081;-67
2024/01/23 08:56:27;;;;;;;23.45;3.58;;;5.80;99.90;;;;;;502892;236;27969;-65
2024/01/23 08:58:29;;;;;;;24.08;4.30;;;5.70;99.90;;;;;;502971;236;27545;-65
2024/01/23 09:00:30;;;;;;;13.62;4.57;;;5.60;99.90;;;;;;502995;236;27466;-67
2024/01/23 09:02:31;;;;;;;19.33;4.35;;;5.60;99.90;;;;;;502966;236;27521;-68
2024/01/23 09:04:32;;;;;;;23.38;4.47;;;5.70;99.90;;;;;;502982;236;27447;-65
2024/01/23 09:06:34;;;;;;;20.92;5.28;;;5.70;99.90;;;;;;502778;236;27926;-65
2024/01/23 09:08:35;;;;;;;18.55;3.83;;;5.80;99.90;;;;;;502980;236;28047;-66
2024/01/23 09:10:36;;;;;;;20.25;4.65;;;5.80;99.90;;;;;;502991;236;27346;-65
2024/01/23 09:12:37;;;;;;;15.55;3.55;;;5.80;99.90;;;;;;502938;236;27572;-65
2024/01/23 09:14:39;;;;;;;13.98;3.65;;;5.90;99.90;;;;;;502947;236;27439;-65
2024/01/23 09:16:40;;;;;;;22.67;4.25;;;5.90;99.90;;;;;;502983;236;27343;-65
2024/01/23 09:18:44;;;;;;;19.08;4.35;;;6.00;99.90;;;;;;502988;236;27861;-68
2024/01/23 09:20:43;;;;;;;29.58;3.65;;;6.00;99.90;;;;;;502864;236;27466;-68
2024/01/23 09:22:44;;;;;;;17.45;4.22;;;6.00;99.90;;;;;;502873;236;27490;-66
2024/01/23 09:24:45;;;;;;;25.77;5.82;;;6.00;99.90;;;;;;502941;236;27490;-68
2024/01/23 09:26:46;;;;;;;28.70;4.62;;;6.10;99.90;;;;;;502977;236;27458;-67
2024/01/23 09:28:48;;;;;;;21.08;4.35;;;6.10;99.90;;;;;;502999;236;27973;-65
2024/01/23 09:30:49;;;;;;;19.00;3.90;;;6.10;99.90;;;;;;502987;236;27970;-68
2024/01/23 09:32:50;;;;;;;18.27;4.15;;;6.10;99.90;;;;;;502918;236;27474;-66
2024/01/23 09:34:51;;;;;;;22.20;4.85;;;6.10;99.90;;;;;;502960;236;27482;-68
2024/01/23 09:36:53;;;;;;;14.13;3.20;;;6.00;99.90;;;;;;502952;236;27403;-67
2024/01/23 09:38:54;;;;;;;18.90;4.37;;;6.10;99.90;;;;;;502949;236;27533;-67
2024/01/23 09:40:55;;;;;;;21.37;4.50;;;6.10;99.90;;;;;;502950;236;27405;-67
2024/01/23 09:42:57;;;;;;;28.50;4.97;;;6.20;99.90;;;;;;502954;236;27458;-67
2024/01/23 09:44:58;;;;;;;17.00;4.27;;;6.30;99.90;;;;;;502957;236;27976;-68
2024/01/23 09:46:59;;;;;;;24.57;4.20;;;6.30;99.90;;;;;;502945;236;29248;-68
2024/01/23 09:49:00;;;;;;;24.98;4.60;;;6.40;99.90;;;;;;502953;236;28808;-67
2024/01/23 09:51:02;;;;;;;20.67;5.07;;;6.50;99.90;;;;;;503013;236;27374;-69
2024/01/23 09:53:03;;;;;;;22.40;4.57;;;6.50;99.90;;;;;;502983;236;27426;-67
2024/01/23 09:55:04;;;;;;;22.83;6.30;;;6.50;99.90;;;;;;502922;236;28809;-68
2024/01/23 09:57:05;;;;;;;16.17;3.90;;;6.50;99.90;;;;;;502900;236;28837;-67
2024/01/23 09:59:07;;;;;;;23.60;4.93;;;6.50;99.90;;;;;;502975;236;28442;-67
2024/01/23 10:01:08;;;;;;;20.90;4.57;;;6.50;99.90;;;;;;502990;236;29182;-68
2024/01/23 10:03:09;;;;;;;21.23;4.57;;;6.40;99.90;;;;;;502972;236;29339;-67
2024/01/23 10:05:10;;;;;;;19.55;4.97;;;6.50;99.90;;;;;;502934;236;28906;-67
2024/01/23 10:07:12;;;;;;;18.83;4.20;;;6.50;99.90;;;;;;502977;236;27570;-67
2024/01/23 10:09:13;;;;;;;24.13;5.33;;;6.60;99.90;;;;;;503034;236;27442;-67
2024/01/23 10:11:14;;;;;;;13.53;4.47;;;6.60;99.90;;;;;;502991;236;28809;-68
2024/01/23 10:13:15;;;;;;;19.83;3.63;;;6.70;99.90;;;;;;502966;236;28813;-67
2024/01/23 10:15:18;;;;;;;37.07;5.30;;;6.60;99.90;;;;;;502922;236;27996;-67
2024/01/23 10:17:18;;;;;;;29.60;5.45;;;6.50;99.90;;;;;;502955;236;27947;-68
2024/01/23 10:19:19;;;;;;;15.17;4.43;;;6.40;99.90;;;;;;502982;236;27561;-67
2024/01/23 10:21:21;;;;;;;25.73;4.55;;;6.40;99.90;;;;;;502936;236;28984;-66
2024/01/23 10:23:22;;;;;;;20.50;4.32;;;6.50;99.90;;;;;;502946;236;27487;-67
2024/01/23 10:25:25;;;;;;;20.83;4.55;;;6.60;99.90;;;;;;502948;236;27565;-67
2024/01/23 10:27:24;;;;;;;19.03;4.43;;;6.50;99.90;;;;;;502908;236;27518;-67
2024/01/23 10:29:26;;;;;;;23.50;4.53;;;6.60;99.90;;;;;;502944;236;29339;-67
2024/01/23 10:31:27;;;;;;;14.00;4.23;;;6.50;99.90;;;;;;502935;236;28371;-66